sensor_id;sensor_type;location;lat;lon;timestamp;temperature;humidity
77052;SHT30;65980;44.898;8.602;2024-01-30T00:00:29;1.12;94.61
77052;SHT30;65980;44.898;8.602;2024-01-30T00:03:33;1.30;94.97
77052;SHT30;65980;44.898;8.602;2024-01-30T00:06:38;1.22;94.34
77052;SHT30;65980;44.898;8.602;2024-01-30T00:09:42;1.03;93.86
77052;SHT30;65980;44.898;8.602;2024-01-30T00:12:46;1.10;93.80
77052;SHT30;65980;44.898;8.602;2024-01-30T00:15:51;1.06;94.31
77052;SHT30;65980;44.898;8.602;2024-01-30T00:18:55;1.24;94.47
77052;SHT30;65980;44.898;8.602;2024-01-30T00:21:58;1.22;94.28
77052;SHT30;65980;44.898;8.602;2024-01-30T00:25:03;1.54;93.94
77052;SHT30;65980;44.898;8.602;2024-01-30T00:28:08;1.46;93.52
77052;SHT30;65980;44.898;8.602;2024-01-30T00:31:12;1.31;92.81
77052;SHT30;65980;44.898;8.602;2024-01-30T00:34:16;1.46;93.00
77052;SHT30;65980;44.898;8.602;2024-01-30T00:37:19;1.64;92.94
77052;SHT30;65980;44.898;8.602;2024-01-30T00:40:24;1.83;92.90
77052;SHT30;65980;44.898;8.602;2024-01-30T00:43:28;1.69;91.83
77052;SHT30;65980;44.898;8.602;2024-01-30T00:46:32;1.64;91.77
77052;SHT30;65980;44.898;8.602;2024-01-30T00:49:37;1.71;92.20
77052;SHT30;65980;44.898;8.602;2024-01-30T00:52:42;1.91;92.16
77052;SHT30;65980;44.898;8.602;2024-01-30T00:55:49;1.79;92.39
77052;SHT30;65980;44.898;8.602;2024-01-30T00:58:53;1.95;91.76
77052;SHT30;65980;44.898;8.602;2024-01-30T01:01:57;1.62;92.00
77052;SHT30;65980;44.898;8.602;2024-01-30T01:05:02;1.44;92.93
77052;SHT30;65980;44.898;8.602;2024-01-30T01:08:07;1.47;92.64
77052;SHT30;65980;44.898;8.602;2024-01-30T01:11:11;1.55;92.46
77052;SHT30;65980;44.898;8.602;2024-01-30T01:14:16;1.79;92.40
77052;SHT30;65980;44.898;8.602;2024-01-30T01:17:19;1.79;91.88
77052;SHT30;65980;44.898;8.602;2024-01-30T01:20:24;1.82;91.72
77052;SHT30;65980;44.898;8.602;2024-01-30T01:23:29;1.99;91.58
77052;SHT30;65980;44.898;8.602;2024-01-30T01:26:34;1.96;91.16
77052;SHT30;65980;44.898;8.602;2024-01-30T01:29:37;2.01;90.71
77052;SHT30;65980;44.898;8.602;2024-01-30T01:32:42;1.83;91.56
77052;SHT30;65980;44.898;8.602;2024-01-30T01:35:53;1.96;90.87
77052;SHT30;65980;44.898;8.602;2024-01-30T01:38:58;1.59;91.19
77052;SHT30;65980;44.898;8.602;2024-01-30T01:42:03;1.34;92.37
77052;SHT30;65980;44.898;8.602;2024-01-30T01:45:08;1.40;92.30
77052;SHT30;65980;44.898;8.602;2024-01-30T01:48:13;1.31;92.81
77052;SHT30;65980;44.898;8.602;2024-01-30T01:51:18;1.26;92.80
77052;SHT30;65980;44.898;8.602;2024-01-30T01:54:23;1.39;92.93
77052;SHT30;65980;44.898;8.602;2024-01-30T01:57:27;1.51;92.74
77052;SHT30;65980;44.898;8.602;2024-01-30T02:00:32;1.50;92.05
77052;SHT30;65980;44.898;8.602;2024-01-30T02:03:37;1.54;92.82
77052;SHT30;65980;44.898;8.602;2024-01-30T02:06:43;1.33;92.05
77052;SHT30;65980;44.898;8.602;2024-01-30T02:09:47;1.61;92.36
77052;SHT30;65980;44.898;8.602;2024-01-30T02:12:52;1.65;91.24
77052;SHT30;65980;44.898;8.602;2024-01-30T02:15:56;1.19;91.34
77052;SHT30;65980;44.898;8.602;2024-01-30T02:19:00;1.00;92.41
77052;SHT30;65980;44.898;8.602;2024-01-30T02:22:08;1.06;92.61
77052;SHT30;65980;44.898;8.602;2024-01-30T02:25:13;1.22;92.51
77052;SHT30;65980;44.898;8.602;2024-01-30T02:28:16;1.12;92.59
77052;SHT30;65980;44.898;8.602;2024-01-30T02:31:20;1.24;93.02
77052;SHT30;65980;44.898;8.602;2024-01-30T02:34:24;1.29;92.28
77052;SHT30;65980;44.898;8.602;2024-01-30T02:37:29;1.33;92.67
77052;SHT30;65980;44.898;8.602;2024-01-30T02:40:33;1.34;92.25
77052;SHT30;65980;44.898;8.602;2024-01-30T02:43:36;1.03;92.93
77052;SHT30;65980;44.898;8.602;2024-01-30T02:46:41;0.89;93.51
77052;SHT30;65980;44.898;8.602;2024-01-30T02:49:44;1.00;93.96
77052;SHT30;65980;44.898;8.602;2024-01-30T02:52:49;1.15;93.69
77052;SHT30;65980;44.898;8.602;2024-01-30T02:55:53;1.09;93.20
77052;SHT30;65980;44.898;8.602;2024-01-30T02:58:57;1.31;93.44
77052;SHT30;65980;44.898;8.602;2024-01-30T03:02:01;1.54;93.33
77052;SHT30;65980;44.898;8.602;2024-01-30T03:05:06;1.62;92.63
77052;SHT30;65980;44.898;8.602;2024-01-30T03:08:11;1.59;91.66
77052;SHT30;65980;44.898;8.602;2024-01-30T03:11:39;1.55;91.82
77052;SHT30;65980;44.898;8.602;2024-01-30T03:14:44;1.67;91.93
77052;SHT30;65980;44.898;8.602;2024-01-30T03:17:49;1.78;91.11
77052;SHT30;65980;44.898;8.602;2024-01-30T03:20:54;1.79;90.52
77052;SHT30;65980;44.898;8.602;2024-01-30T03:23:57;1.74;90.23
77052;SHT30;65980;44.898;8.602;2024-01-30T03:27:02;1.59;89.73
77052;SHT30;65980;44.898;8.602;2024-01-30T03:30:07;1.79;90.09
77052;SHT30;65980;44.898;8.602;2024-01-30T03:33:12;1.78;89.54
77052;SHT30;65980;44.898;8.602;2024-01-30T03:36:17;1.83;89.42
77052;SHT30;65980;44.898;8.602;2024-01-30T03:39:21;1.75;89.48
77052;SHT30;65980;44.898;8.602;2024-01-30T03:42:26;1.65;89.25
77052;SHT30;65980;44.898;8.602;2024-01-30T03:45:29;1.47;88.95
77052;SHT30;65980;44.898;8.602;2024-01-30T03:48:33;1.64;89.40
77052;SHT30;65980;44.898;8.602;2024-01-30T03:51:38;1.58;89.55
77052;SHT30;65980;44.898;8.602;2024-01-30T03:54:41;1.44;89.77
77052;SHT30;65980;44.898;8.602;2024-01-30T03:57:46;1.58;89.69
77052;SHT30;65980;44.898;8.602;2024-01-30T04:00:49;1.44;89.33
77052;SHT30;65980;44.898;8.602;2024-01-30T04:03:53;1.59;89.66
77052;SHT30;65980;44.898;8.602;2024-01-30T04:06:57;1.54;89.26
77052;SHT30;65980;44.898;8.602;2024-01-30T04:10:02;1.39;89.06
77052;SHT30;65980;44.898;8.602;2024-01-30T04:13:09;1.37;89.27
77052;SHT30;65980;44.898;8.602;2024-01-30T04:16:21;1.43;89.55
77052;SHT30;65980;44.898;8.602;2024-01-30T04:19:27;1.43;89.06
77052;SHT30;65980;44.898;8.602;2024-01-30T04:22:31;1.54;89.51
77052;SHT30;65980;44.898;8.602;2024-01-30T04:25:35;1.54;89.52
77052;SHT30;65980;44.898;8.602;2024-01-30T04:28:44;1.52;89.44
77052;SHT30;65980;44.898;8.602;2024-01-30T04:31:48;1.59;89.46
77052;SHT30;65980;44.898;8.602;2024-01-30T04:34:53;1.59;89.42
77052;SHT30;65980;44.898;8.602;2024-01-30T04:37:58;1.71;89.39
77052;SHT30;65980;44.898;8.602;2024-01-30T04:41:01;1.33;88.80
77052;SHT30;65980;44.898;8.602;2024-01-30T04:44:05;1.03;90.35
77052;SHT30;65980;44.898;8.602;2024-01-30T04:47:10;0.75;91.60
77052;SHT30;65980;44.898;8.602;2024-01-30T04:50:15;0.69;92.27
77052;SHT30;65980;44.898;8.602;2024-01-30T04:53:19;0.86;91.80
77052;SHT30;65980;44.898;8.602;2024-01-30T04:56:23;0.60;92.16
77052;SHT30;65980;44.898;8.602;2024-01-30T04:59:27;0.81;92.98
77052;SHT30;65980;44.898;8.602;2024-01-30T05:02:32;0.74;91.97
77052;SHT30;65980;44.898;8.602;2024-01-30T05:05:36;0.31;92.49
77052;SHT30;65980;44.898;8.602;2024-01-30T05:08:40;0.19;93.39
77052;SHT30;65980;44.898;8.602;2024-01-30T05:11:44;0.03;93.91
77052;SHT30;65980;44.898;8.602;2024-01-30T05:14:49;-0.05;94.15
77052;SHT30;65980;44.898;8.602;2024-01-30T05:17:53;-0.04;94.52
77052;SHT30;65980;44.898;8.602;2024-01-30T05:20:57;0.06;94.57
77052;SHT30;65980;44.898;8.602;2024-01-30T05:24:02;0.16;94.73
77052;SHT30;65980;44.898;8.602;2024-01-30T05:27:06;0.20;94.57
77052;SHT30;65980;44.898;8.602;2024-01-30T05:30:10;0.48;94.59
77052;SHT30;65980;44.898;8.602;2024-01-30T05:33:15;0.33;93.96
77052;SHT30;65980;44.898;8.602;2024-01-30T05:36:19;0.40;94.27
77052;SHT30;65980;44.898;8.602;2024-01-30T05:39:24;0.27;93.96
77052;SHT30;65980;44.898;8.602;2024-01-30T05:42:28;-0.06;94.05
77052;SHT30;65980;44.898;8.602;2024-01-30T05:45:32;-0.12;94.81
77052;SHT30;65980;44.898;8.602;2024-01-30T05:48:36;0.14;95.04
77052;SHT30;65980;44.898;8.602;2024-01-30T05:51:40;0.03;94.72
77052;SHT30;65980;44.898;8.602;2024-01-30T05:54:44;0.17;94.60
77052;SHT30;65980;44.898;8.602;2024-01-30T05:57:48;0.41;94.67
77052;SHT30;65980;44.898;8.602;2024-01-30T06:00:52;0.51;94.10
77052;SHT30;65980;44.898;8.602;2024-01-30T06:03:57;0.68;93.45
77052;SHT30;65980;44.898;8.602;2024-01-30T06:07:03;0.60;92.43
77052;SHT30;65980;44.898;8.602;2024-01-30T06:10:09;0.40;93.06
77052;SHT30;65980;44.898;8.602;2024-01-30T06:13:13;0.56;92.74
77052;SHT30;65980;44.898;8.602;2024-01-30T06:16:21;0.23;92.84
77052;SHT30;65980;44.898;8.602;2024-01-30T06:19:26;0.36;93.11
77052;SHT30;65980;44.898;8.602;2024-01-30T06:22:30;0.19;92.81
77052;SHT30;65980;44.898;8.602;2024-01-30T06:25:34;0.09;92.63
77052;SHT30;65980;44.898;8.602;2024-01-30T06:28:38;0.05;93.09
77052;SHT30;65980;44.898;8.602;2024-01-30T06:31:43;-0.01;93.46
77052;SHT30;65980;44.898;8.602;2024-01-30T06:34:47;-0.28;93.71
77052;SHT30;65980;44.898;8.602;2024-01-30T06:37:51;-0.43;93.88
77052;SHT30;65980;44.898;8.602;2024-01-30T06:40:56;-0.37;93.90
77052;SHT30;65980;44.898;8.602;2024-01-30T06:44:04;-0.40;93.86
77052;SHT30;65980;44.898;8.602;2024-01-30T06:47:11;-0.56;93.73
77052;SHT30;65980;44.898;8.602;2024-01-30T06:50:15;-0.76;93.62
77052;SHT30;65980;44.898;8.602;2024-01-30T06:54:14;-0.81;93.97
77052;SHT30;65980;44.898;8.602;2024-01-30T06:57:18;-0.64;94.13
77052;SHT30;65980;44.898;8.602;2024-01-30T07:00:22;-0.52;93.91
77052;SHT30;65980;44.898;8.602;2024-01-30T07:03:27;-0.30;93.65
77052;SHT30;65980;44.898;8.602;2024-01-30T07:06:31;-0.21;93.24
77052;SHT30;65980;44.898;8.602;2024-01-30T07:09:36;-0.05;92.73
77052;SHT30;65980;44.898;8.602;2024-01-30T07:12:41;-0.12;91.58
77052;SHT30;65980;44.898;8.602;2024-01-30T07:15:49;-0.43;92.16
77052;SHT30;65980;44.898;8.602;2024-01-30T07:18:54;-0.59;92.37
77052;SHT30;65980;44.898;8.602;2024-01-30T07:22:00;-0.53;92.90
77052;SHT30;65980;44.898;8.602;2024-01-30T07:25:06;-0.66;92.75
77052;SHT30;65980;44.898;8.602;2024-01-30T07:28:10;-0.52;93.37
77052;SHT30;65980;44.898;8.602;2024-01-30T07:31:16;-0.40;92.39
77052;SHT30;65980;44.898;8.602;2024-01-30T07:34:21;-0.50;92.27
77052;SHT30;65980;44.898;8.602;2024-01-30T07:37:26;-0.23;92.43
77052;SHT30;65980;44.898;8.602;2024-01-30T07:40:32;-0.36;91.59
77052;SHT30;65980;44.898;8.602;2024-01-30T07:43:38;-0.48;91.87
77052;SHT30;65980;44.898;8.602;2024-01-30T07:46:42;-0.54;92.27
77052;SHT30;65980;44.898;8.602;2024-01-30T07:49:49;-0.64;92.47
77052;SHT30;65980;44.898;8.602;2024-01-30T07:52:59;-0.69;92.81
77052;SHT30;65980;44.898;8.602;2024-01-30T07:56:16;-0.59;92.58
77052;SHT30;65980;44.898;8.602;2024-01-30T07:59:24;-0.49;92.12
77052;SHT30;65980;44.898;8.602;2024-01-30T08:02:29;-0.84;92.20
77052;SHT30;65980;44.898;8.602;2024-01-30T08:05:39;-0.91;92.75
77052;SHT30;65980;44.898;8.602;2024-01-30T08:08:55;-0.66;92.44
77052;SHT30;65980;44.898;8.602;2024-01-30T08:12:05;-0.32;92.31
77052;SHT30;65980;44.898;8.602;2024-01-30T08:15:10;-0.19;90.97
77052;SHT30;65980;44.898;8.602;2024-01-30T08:18:25;-0.44;90.19
77052;SHT30;65980;44.898;8.602;2024-01-30T08:21:36;-0.57;90.77
77052;SHT30;65980;44.898;8.602;2024-01-30T08:24:51;-0.60;91.43
77052;SHT30;65980;44.898;8.602;2024-01-30T08:28:01;-0.66;91.62
77052;SHT30;65980;44.898;8.602;2024-01-30T08:31:09;-0.67;92.33
77052;SHT30;65980;44.898;8.602;2024-01-30T08:34:14;-0.61;92.63
77052;SHT30;65980;44.898;8.602;2024-01-30T08:37:20;-0.61;92.59
77052;SHT30;65980;44.898;8.602;2024-01-30T08:40:25;-0.52;92.39
77052;SHT30;65980;44.898;8.602;2024-01-30T08:43:30;-0.61;92.49
77052;SHT30;65980;44.898;8.602;2024-01-30T08:46:34;-0.53;92.40
77052;SHT30;65980;44.898;8.602;2024-01-30T08:49:39;-0.40;92.10
77052;SHT30;65980;44.898;8.602;2024-01-30T08:52:45;-0.60;91.96
77052;SHT30;65980;44.898;8.602;2024-01-30T08:55:51;-0.57;92.52
77052;SHT30;65980;44.898;8.602;2024-01-30T08:58:56;-0.18;92.48
77052;SHT30;65980;44.898;8.602;2024-01-30T09:02:10;-0.21;92.38
77052;SHT30;65980;44.898;8.602;2024-01-30T09:06:11;-0.23;92.02
77052;SHT30;65980;44.898;8.602;2024-01-30T09:09:16;-0.19;92.47
77052;SHT30;65980;44.898;8.602;2024-01-30T09:12:21;-0.11;92.25
77052;SHT30;65980;44.898;8.602;2024-01-30T09:15:25;-0.06;91.69
77052;SHT30;65980;44.898;8.602;2024-01-30T09:18:30;-0.05;91.62
77052;SHT30;65980;44.898;8.602;2024-01-30T09:21:38;-0.15;90.72
77052;SHT30;65980;44.898;8.602;2024-01-30T09:25:08;0.27;90.92
77052;SHT30;65980;44.898;8.602;2024-01-30T09:28:18;0.50;88.67
77052;SHT30;65980;44.898;8.602;2024-01-30T09:36:18;1.19;87.92
77052;SHT30;65980;44.898;8.602;2024-01-30T09:41:09;1.13;86.59
77052;SHT30;65980;44.898;8.602;2024-01-30T09:44:16;1.40;86.14
77052;SHT30;65980;44.898;8.602;2024-01-30T09:47:22;1.76;84.60
77052;SHT30;65980;44.898;8.602;2024-01-30T09:50:27;1.55;85.62
77052;SHT30;65980;44.898;8.602;2024-01-30T09:53:57;1.48;86.54
77052;SHT30;65980;44.898;8.602;2024-01-30T09:57:12;1.46;86.37
77052;SHT30;65980;44.898;8.602;2024-01-30T10:00:20;1.51;86.82
77052;SHT30;65980;44.898;8.602;2024-01-30T10:07:12;2.64;83.03
77052;SHT30;65980;44.898;8.602;2024-01-30T10:10:21;2.59;82.39
77052;SHT30;65980;44.898;8.602;2024-01-30T10:13:30;2.50;82.23
77052;SHT30;65980;44.898;8.602;2024-01-30T10:16:35;2.54;83.26
77052;SHT30;65980;44.898;8.602;2024-01-30T10:19:40;2.78;82.43
77052;SHT30;65980;44.898;8.602;2024-01-30T10:22:44;3.06;81.57
77052;SHT30;65980;44.898;8.602;2024-01-30T10:25:55;3.69;79.28
77052;SHT30;65980;44.898;8.602;2024-01-30T10:29:02;3.90;79.07
77052;SHT30;65980;44.898;8.602;2024-01-30T10:32:07;3.96;78.24
77052;SHT30;65980;44.898;8.602;2024-01-30T10:35:21;4.20;78.64
77052;SHT30;65980;44.898;8.602;2024-01-30T10:38:35;4.48;77.59
77052;SHT30;65980;44.898;8.602;2024-01-30T10:41:44;4.89;77.96
77052;SHT30;65980;44.898;8.602;2024-01-30T10:49:22;6.52;74.33
77052;SHT30;65980;44.898;8.602;2024-01-30T10:52:54;6.35;73.29
77052;SHT30;65980;44.898;8.602;2024-01-30T10:55:59;5.89;74.81
77052;SHT30;65980;44.898;8.602;2024-01-30T10:59:07;5.69;75.22
77052;SHT30;65980;44.898;8.602;2024-01-30T11:02:12;5.93;74.92
77052;SHT30;65980;44.898;8.602;2024-01-30T11:05:49;5.13;78.19
77052;SHT30;65980;44.898;8.602;2024-01-30T11:09:04;5.52;77.54
77052;SHT30;65980;44.898;8.602;2024-01-30T11:12:22;6.49;72.68
77052;SHT30;65980;44.898;8.602;2024-01-30T11:15:29;6.14;73.13
77052;SHT30;65980;44.898;8.602;2024-01-30T11:18:36;7.31;71.54
77052;SHT30;65980;44.898;8.602;2024-01-30T11:21:50;7.55;68.59
77052;SHT30;65980;44.898;8.602;2024-01-30T11:25:26;6.83;72.56
77052;SHT30;65980;44.898;8.602;2024-01-30T11:28:54;6.52;74.05
77052;SHT30;65980;44.898;8.602;2024-01-30T11:32:31;6.06;76.08
77052;SHT30;65980;44.898;8.602;2024-01-30T11:35:47;6.59;73.73
77052;SHT30;65980;44.898;8.602;2024-01-30T11:38:54;6.53;74.84
77052;SHT30;65980;44.898;8.602;2024-01-30T11:42:14;6.09;76.43
77052;SHT30;65980;44.898;8.602;2024-01-30T11:45:21;6.17;75.47
77052;SHT30;65980;44.898;8.602;2024-01-30T11:48:32;5.69;77.76
77052;SHT30;65980;44.898;8.602;2024-01-30T11:51:36;5.38;79.25
77052;SHT30;65980;44.898;8.602;2024-01-30T11:54:44;4.41;83.08
77052;SHT30;65980;44.898;8.602;2024-01-30T11:57:49;4.10;84.31
77052;SHT30;65980;44.898;8.602;2024-01-30T12:00:57;4.57;83.15
77052;SHT30;65980;44.898;8.602;2024-01-30T12:04:03;4.95;81.74
77052;SHT30;65980;44.898;8.602;2024-01-30T12:07:24;4.89;82.34
77052;SHT30;65980;44.898;8.602;2024-01-30T12:10:34;4.57;83.06
77052;SHT30;65980;44.898;8.602;2024-01-30T12:13:41;4.65;83.32
77052;SHT30;65980;44.898;8.602;2024-01-30T12:16:48;4.73;83.45
77052;SHT30;65980;44.898;8.602;2024-01-30T12:23:53;5.76;81.07
77052;SHT30;65980;44.898;8.602;2024-01-30T12:27:30;6.35;79.11
77052;SHT30;65980;44.898;8.602;2024-01-30T12:31:24;7.55;75.44
77052;SHT30;65980;44.898;8.602;2024-01-30T12:35:21;9.21;70.15
77052;SHT30;65980;44.898;8.602;2024-01-30T12:38:25;8.79;70.46
77052;SHT30;65980;44.898;8.602;2024-01-30T12:45:36;9.08;70.62
77052;SHT30;65980;44.898;8.602;2024-01-30T12:48:41;9.27;70.10
77052;SHT30;65980;44.898;8.602;2024-01-30T12:51:45;10.27;66.21
77052;SHT30;65980;44.898;8.602;2024-01-30T12:54:55;10.45;64.98
77052;SHT30;65980;44.898;8.602;2024-01-30T12:57:59;9.58;68.56
77052;SHT30;65980;44.898;8.602;2024-01-30T13:01:05;9.14;69.86
77052;SHT30;65980;44.898;8.602;2024-01-30T13:04:11;9.11;70.75
77052;SHT30;65980;44.898;8.602;2024-01-30T13:07:16;9.15;71.06
77052;SHT30;65980;44.898;8.602;2024-01-30T13:10:21;9.63;69.76
77052;SHT30;65980;44.898;8.602;2024-01-30T13:13:25;10.31;67.10
77052;SHT30;65980;44.898;8.602;2024-01-30T13:16:31;10.59;66.11
77052;SHT30;65980;44.898;8.602;2024-01-30T13:19:35;10.30;65.89
77052;SHT30;65980;44.898;8.602;2024-01-30T13:31:15;10.53;64.19
77052;SHT30;65980;44.898;8.602;2024-01-30T13:34:19;10.17;65.65
77052;SHT30;65980;44.898;8.602;2024-01-30T13:37:24;9.95;66.74
77052;SHT30;65980;44.898;8.602;2024-01-30T13:41:01;9.91;67.27
77052;SHT30;65980;44.898;8.602;2024-01-30T13:44:08;9.84;67.09
77052;SHT30;65980;44.898;8.602;2024-01-30T13:47:34;9.34;68.68
77052;SHT30;65980;44.898;8.602;2024-01-30T13:51:20;9.41;69.50
77052;SHT30;65980;44.898;8.602;2024-01-30T13:54:36;9.75;68.82
77052;SHT30;65980;44.898;8.602;2024-01-30T13:57:48;9.82;67.19
77052;SHT30;65980;44.898;8.602;2024-01-30T14:01:27;9.89;67.37
77052;SHT30;65980;44.898;8.602;2024-01-30T14:04:32;10.25;67.29
77052;SHT30;65980;44.898;8.602;2024-01-30T14:12:26;10.11;66.14
77052;SHT30;65980;44.898;8.602;2024-01-30T14:15:31;9.38;69.46
77052;SHT30;65980;44.898;8.602;2024-01-30T14:18:35;9.46;69.34
77052;SHT30;65980;44.898;8.602;2024-01-30T14:22:09;9.66;68.55
77052;SHT30;65980;44.898;8.602;2024-01-30T14:25:23;9.52;68.11
77052;SHT30;65980;44.898;8.602;2024-01-30T14:28:30;9.28;68.95
77052;SHT30;65980;44.898;8.602;2024-01-30T14:31:57;9.43;69.33
77052;SHT30;65980;44.898;8.602;2024-01-30T14:36:06;9.48;68.98
77052;SHT30;65980;44.898;8.602;2024-01-30T14:39:34;9.32;67.89
77052;SHT30;65980;44.898;8.602;2024-01-30T14:42:58;9.08;68.64
77052;SHT30;65980;44.898;8.602;2024-01-30T14:46:24;9.14;68.15
77052;SHT30;65980;44.898;8.602;2024-01-30T14:49:34;9.21;69.69
77052;SHT30;65980;44.898;8.602;2024-01-30T14:52:39;9.25;70.21
77052;SHT30;65980;44.898;8.602;2024-01-30T14:55:45;9.20;70.69
77052;SHT30;65980;44.898;8.602;2024-01-30T14:58:53;9.10;71.03
77052;SHT30;65980;44.898;8.602;2024-01-30T15:02:07;8.84;72.25
77052;SHT30;65980;44.898;8.602;2024-01-30T15:05:12;8.65;72.72
77052;SHT30;65980;44.898;8.602;2024-01-30T15:08:17;8.75;72.39
77052;SHT30;65980;44.898;8.602;2024-01-30T15:11:22;8.87;72.17
77052;SHT30;65980;44.898;8.602;2024-01-30T15:14:32;9.08;73.29
77052;SHT30;65980;44.898;8.602;2024-01-30T15:17:40;9.20;73.90
77052;SHT30;65980;44.898;8.602;2024-01-30T15:21:03;9.34;73.86
77052;SHT30;65980;44.898;8.602;2024-01-30T15:24:17;9.38;73.61
77052;SHT30;65980;44.898;8.602;2024-01-30T15:27:51;8.99;74.65
77052;SHT30;65980;44.898;8.602;2024-01-30T15:30:55;9.13;74.24
77052;SHT30;65980;44.898;8.602;2024-01-30T15:34:21;9.07;74.56
77052;SHT30;65980;44.898;8.602;2024-01-30T15:37:33;8.91;74.80
77052;SHT30;65980;44.898;8.602;2024-01-30T15:40:37;8.83;74.85
77052;SHT30;65980;44.898;8.602;2024-01-30T15:43:56;8.35;76.72
77052;SHT30;65980;44.898;8.602;2024-01-30T15:47:40;8.55;76.48
77052;SHT30;65980;44.898;8.602;2024-01-30T15:50:45;8.46;76.76
77052;SHT30;65980;44.898;8.602;2024-01-30T15:53:59;8.37;77.08
77052;SHT30;65980;44.898;8.602;2024-01-30T15:57:04;8.27;77.32
77052;SHT30;65980;44.898;8.602;2024-01-30T16:00:11;8.24;77.41
77052;SHT30;65980;44.898;8.602;2024-01-30T16:03:16;8.14;77.46
77052;SHT30;65980;44.898;8.602;2024-01-30T16:06:21;8.08;77.36
77052;SHT30;65980;44.898;8.602;2024-01-30T16:09:29;8.00;77.94
77052;SHT30;65980;44.898;8.602;2024-01-30T16:12:34;7.76;78.77
77052;SHT30;65980;44.898;8.602;2024-01-30T16:15:39;7.65;79.20
77052;SHT30;65980;44.898;8.602;2024-01-30T16:18:44;7.69;78.68
77052;SHT30;65980;44.898;8.602;2024-01-30T16:21:48;7.69;79.02
77052;SHT30;65980;44.898;8.602;2024-01-30T16:24:53;7.66;79.15
77052;SHT30;65980;44.898;8.602;2024-01-30T16:27:57;7.63;79.30
77052;SHT30;65980;44.898;8.602;2024-01-30T16:31:03;7.61;79.51
77052;SHT30;65980;44.898;8.602;2024-01-30T16:34:07;7.59;79.57
77052;SHT30;65980;44.898;8.602;2024-01-30T16:37:11;7.51;79.81
77052;SHT30;65980;44.898;8.602;2024-01-30T16:40:15;7.48;79.96
77052;SHT30;65980;44.898;8.602;2024-01-30T16:43:19;7.42;80.17
77052;SHT30;65980;44.898;8.602;2024-01-30T16:46:23;7.31;80.34
77052;SHT30;65980;44.898;8.602;2024-01-30T16:49:27;7.18;80.53
77052;SHT30;65980;44.898;8.602;2024-01-30T16:52:31;7.15;80.56
77052;SHT30;65980;44.898;8.602;2024-01-30T16:55:35;7.13;80.63
77052;SHT30;65980;44.898;8.602;2024-01-30T16:58:40;7.14;80.55
77052;SHT30;65980;44.898;8.602;2024-01-30T17:01:45;7.08;80.37
77052;SHT30;65980;44.898;8.602;2024-01-30T17:04:51;6.97;80.13
77052;SHT30;65980;44.898;8.602;2024-01-30T17:07:56;6.94;80.63
77052;SHT30;65980;44.898;8.602;2024-01-30T17:11:03;6.86;80.20
77052;SHT30;65980;44.898;8.602;2024-01-30T17:14:08;6.77;80.64
77052;SHT30;65980;44.898;8.602;2024-01-30T17:17:13;6.76;81.22
77052;SHT30;65980;44.898;8.602;2024-01-30T17:20:18;6.68;81.15
77052;SHT30;65980;44.898;8.602;2024-01-30T17:23:24;6.64;81.55
77052;SHT30;65980;44.898;8.602;2024-01-30T17:26:30;6.64;81.71
77052;SHT30;65980;44.898;8.602;2024-01-30T17:29:35;6.58;81.66
77052;SHT30;65980;44.898;8.602;2024-01-30T17:32:40;6.64;81.74
77052;SHT30;65980;44.898;8.602;2024-01-30T17:35:45;6.65;82.01
77052;SHT30;65980;44.898;8.602;2024-01-30T17:38:50;6.64;82.01
77052;SHT30;65980;44.898;8.602;2024-01-30T17:41:55;6.52;82.30
77052;SHT30;65980;44.898;8.602;2024-01-30T17:45:01;6.53;82.08
77052;SHT30;65980;44.898;8.602;2024-01-30T17:48:10;6.27;83.18
77052;SHT30;65980;44.898;8.602;2024-01-30T17:51:14;6.32;83.02
77052;SHT30;65980;44.898;8.602;2024-01-30T17:54:19;6.37;82.65
77052;SHT30;65980;44.898;8.602;2024-01-30T17:57:24;6.46;82.38
77052;SHT30;65980;44.898;8.602;2024-01-30T18:00:29;6.42;82.06
77052;SHT30;65980;44.898;8.602;2024-01-30T18:03:37;5.99;83.29
77052;SHT30;65980;44.898;8.602;2024-01-30T18:06:52;5.65;83.62
77052;SHT30;65980;44.898;8.602;2024-01-30T18:09:57;5.76;83.53
77052;SHT30;65980;44.898;8.602;2024-01-30T18:13:02;5.93;83.18
77052;SHT30;65980;44.898;8.602;2024-01-30T18:16:11;6.04;82.98
77052;SHT30;65980;44.898;8.602;2024-01-30T18:19:16;6.11;83.18
77052;SHT30;65980;44.898;8.602;2024-01-30T18:22:22;6.20;82.67
77052;SHT30;65980;44.898;8.602;2024-01-30T18:25:26;6.25;82.55
77052;SHT30;65980;44.898;8.602;2024-01-30T18:28:31;6.27;82.71
77052;SHT30;65980;44.898;8.602;2024-01-30T18:31:36;6.35;82.36
77052;SHT30;65980;44.898;8.602;2024-01-30T18:34:45;6.32;82.05
77052;SHT30;65980;44.898;8.602;2024-01-30T18:37:49;6.23;81.97
77052;SHT30;65980;44.898;8.602;2024-01-30T18:40:54;6.09;82.35
77052;SHT30;65980;44.898;8.602;2024-01-30T18:43:58;6.11;82.36
77052;SHT30;65980;44.898;8.602;2024-01-30T18:47:03;6.14;82.49
77052;SHT30;65980;44.898;8.602;2024-01-30T18:50:08;6.17;82.33
77052;SHT30;65980;44.898;8.602;2024-01-30T18:53:14;6.11;82.26
77052;SHT30;65980;44.898;8.602;2024-01-30T18:56:19;6.02;82.69
77052;SHT30;65980;44.898;8.602;2024-01-30T18:59:24;5.96;83.07
77052;SHT30;65980;44.898;8.602;2024-01-30T19:02:30;6.02;83.02
77052;SHT30;65980;44.898;8.602;2024-01-30T19:05:35;6.07;82.84
77052;SHT30;65980;44.898;8.602;2024-01-30T19:08:40;6.13;82.52
77052;SHT30;65980;44.898;8.602;2024-01-30T19:11:45;6.13;82.17
77052;SHT30;65980;44.898;8.602;2024-01-30T19:14:50;6.13;82.10
77052;SHT30;65980;44.898;8.602;2024-01-30T19:17:56;6.04;81.79
77052;SHT30;65980;44.898;8.602;2024-01-30T19:21:00;6.00;81.56
77052;SHT30;65980;44.898;8.602;2024-01-30T19:24:05;5.80;82.20
77052;SHT30;65980;44.898;8.602;2024-01-30T19:27:09;5.77;82.43
77052;SHT30;65980;44.898;8.602;2024-01-30T19:30:14;5.76;82.30
77052;SHT30;65980;44.898;8.602;2024-01-30T19:33:19;5.75;82.60
77052;SHT30;65980;44.898;8.602;2024-01-30T19:36:23;5.77;82.47
77052;SHT30;65980;44.898;8.602;2024-01-30T19:39:28;5.76;82.00
77052;SHT30;65980;44.898;8.602;2024-01-30T19:42:33;5.75;81.57
77052;SHT30;65980;44.898;8.602;2024-01-30T19:45:38;5.69;81.65
77052;SHT30;65980;44.898;8.602;2024-01-30T19:48:43;5.63;81.92
77052;SHT30;65980;44.898;8.602;2024-01-30T19:51:52;5.59;81.91
77052;SHT30;65980;44.898;8.602;2024-01-30T19:54:58;5.55;81.68
77052;SHT30;65980;44.898;8.602;2024-01-30T19:58:06;5.49;81.85
77052;SHT30;65980;44.898;8.602;2024-01-30T20:01:14;5.44;82.14
77052;SHT30;65980;44.898;8.602;2024-01-30T20:04:28;5.48;82.21
77052;SHT30;65980;44.898;8.602;2024-01-30T20:07:49;5.49;82.01
77052;SHT30;65980;44.898;8.602;2024-01-30T20:10:58;5.45;81.78
77052;SHT30;65980;44.898;8.602;2024-01-30T20:14:04;5.24;82.61
77052;SHT30;65980;44.898;8.602;2024-01-30T20:17:08;5.16;82.41
77052;SHT30;65980;44.898;8.602;2024-01-30T20:20:17;4.51;83.80
77052;SHT30;65980;44.898;8.602;2024-01-30T20:23:27;3.86;85.82
77052;SHT30;65980;44.898;8.602;2024-01-30T20:26:31;3.86;87.26
77052;SHT30;65980;44.898;8.602;2024-01-30T20:29:36;4.13;86.20
77052;SHT30;65980;44.898;8.602;2024-01-30T20:32:40;4.11;85.84
77052;SHT30;65980;44.898;8.602;2024-01-30T20:35:45;4.23;85.77
77052;SHT30;65980;44.898;8.602;2024-01-30T20:38:50;4.30;86.09